sensor_id;sensor_type;location;lat;lon;timestamp;P1;durP1;ratioP1;P2;durP2;ratioP2
46777;SDS011;32536;47.128;8.746;2022-09-16T00:00:30;1.33;;;0.82;;
46777;SDS011;32536;47.128;8.746;2022-09-16T00:02:57;1.77;;;1.23;;
46777;SDS011;32536;47.128;8.746;2022-09-16T00:05:24;2.35;;;1.35;;
46777;SDS011;32536;47.128;8.746;2022-09-16T00:07:51;1.92;;;0.95;;
46777;SDS011;32536;47.128;8.746;2022-09-16T00:10:20;2.58;;;1.27;;
46777;SDS011;32536;47.128;8.746;2022-09-16T00:12:48;1.80;;;0.73;;
46777;SDS011;32536;47.128;8.746;2022-09-16T00:15:15;2.40;;;1.35;;
46777;SDS011;32536;47.128;8.746;2022-09-16T00:17:42;2.80;;;1.15;;
46777;SDS011;32536;47.128;8.746;2022-09-16T00:20:08;2.25;;;1.15;;
46777;SDS011;32536;47.128;8.746;2022-09-16T00:22:35;1.77;;;1.02;;
46777;SDS011;32536;47.128;8.746;2022-09-16T00:25:02;2.13;;;1.23;;
46777;SDS011;32536;47.128;8.746;2022-09-16T00:27:29;1.50;;;0.88;;
46777;SDS011;32536;47.128;8.746;2022-09-16T00:29:56;2.85;;;1.50;;
46777;SDS011;32536;47.128;8.746;2022-09-16T00:32:22;1.70;;;0.88;;
46777;SDS011;32536;47.128;8.746;2022-09-16T00:34:50;1.50;;;1.00;;
46777;SDS011;32536;47.128;8.746;2022-09-16T00:37:17;2.03;;;1.17;;
46777;SDS011;32536;47.128;8.746;2022-09-16T00:39:46;2.13;;;1.08;;
46777;SDS011;32536;47.128;8.746;2022-09-16T00:42:14;1.67;;;0.95;;
46777;SDS011;32536;47.128;8.746;2022-09-16T00:47:39;2.05;;;0.95;;
46777;SDS011;32536;47.128;8.746;2022-09-16T00:52:53;4.38;;;1.80;;
46777;SDS011;32536;47.128;8.746;2022-09-16T00:55:23;2.42;;;1.48;;
46777;SDS011;32536;47.128;8.746;2022-09-16T00:57:58;1.63;;;1.05;;
46777;SDS011;32536;47.128;8.746;2022-09-16T01:00:50;1.50;;;0.77;;
46777;SDS011;32536;47.128;8.746;2022-09-16T01:03:17;2.13;;;1.02;;
46777;SDS011;32536;47.128;8.746;2022-09-16T01:08:35;2.22;;;1.05;;
46777;SDS011;32536;47.128;8.746;2022-09-16T01:11:02;1.52;;;1.13;;
46777;SDS011;32536;47.128;8.746;2022-09-16T01:13:29;1.67;;;1.13;;
46777;SDS011;32536;47.128;8.746;2022-09-16T01:34:03;1.75;;;0.90;;
46777;SDS011;32536;47.128;8.746;2022-09-16T01:37:00;3.22;;;1.70;;
46777;SDS011;32536;47.128;8.746;2022-09-16T01:45:55;1.80;;;0.88;;
46777;SDS011;32536;47.128;8.746;2022-09-16T01:51:41;1.25;;;0.73;;
46777;SDS011;32536;47.128;8.746;2022-09-16T01:54:28;1.38;;;0.77;;
46777;SDS011;32536;47.128;8.746;2022-09-16T01:59:57;1.05;;;0.82;;
46777;SDS011;32536;47.128;8.746;2022-09-16T02:05:27;1.73;;;1.10;;
46777;SDS011;32536;47.128;8.746;2022-09-16T02:11:29;1.42;;;0.88;;
46777;SDS011;32536;47.128;8.746;2022-09-16T02:14:05;1.63;;;1.02;;
46777;SDS011;32536;47.128;8.746;2022-09-16T02:16:59;1.63;;;0.85;;
46777;SDS011;32536;47.128;8.746;2022-09-16T02:22:24;1.13;;;0.70;;
46777;SDS011;32536;47.128;8.746;2022-09-16T02:24:59;1.48;;;1.02;;
46777;SDS011;32536;47.128;8.746;2022-09-16T02:27:30;1.58;;;0.90;;
46777;SDS011;32536;47.128;8.746;2022-09-16T02:30:02;1.00;;;0.77;;
46777;SDS011;32536;47.128;8.746;2022-09-16T02:32:35;1.98;;;0.77;;
46777;SDS011;32536;47.128;8.746;2022-09-16T02:35:11;1.02;;;0.68;;
46777;SDS011;32536;47.128;8.746;2022-09-16T02:37:49;1.27;;;0.98;;
46777;SDS011;32536;47.128;8.746;2022-09-16T02:40:28;2.28;;;1.02;;
46777;SDS011;32536;47.128;8.746;2022-09-16T02:43:24;1.80;;;1.40;;
46777;SDS011;32536;47.128;8.746;2022-09-16T02:51:51;1.58;;;0.77;;
46777;SDS011;32536;47.128;8.746;2022-09-16T02:58:02;1.02;;;0.73;;
46777;SDS011;32536;47.128;8.746;2022-09-16T03:00:31;1.17;;;0.80;;
46777;SDS011;32536;47.128;8.746;2022-09-16T03:03:04;0.88;;;0.57;;
46777;SDS011;32536;47.128;8.746;2022-09-16T03:05:31;1.02;;;0.77;;
46777;SDS011;32536;47.128;8.746;2022-09-16T03:07:57;1.52;;;0.57;;
46777;SDS011;32536;47.128;8.746;2022-09-16T03:10:32;1.17;;;0.82;;
46777;SDS011;32536;47.128;8.746;2022-09-16T03:13:18;2.03;;;0.90;;
46777;SDS011;32536;47.128;8.746;2022-09-16T03:18:41;1.17;;;0.98;;
46777;SDS011;32536;47.128;8.746;2022-09-16T03:21:28;1.25;;;1.00;;
46777;SDS011;32536;47.128;8.746;2022-09-16T03:26:47;1.92;;;0.93;;
46777;SDS011;32536;47.128;8.746;2022-09-16T03:32:30;1.08;;;0.85;;
46777;SDS011;32536;47.128;8.746;2022-09-16T03:35:07;1.33;;;1.08;;
46777;SDS011;32536;47.128;8.746;2022-09-16T03:37:42;1.38;;;0.93;;
46777;SDS011;32536;47.128;8.746;2022-09-16T03:40:11;1.60;;;1.02;;
46777;SDS011;32536;47.128;8.746;2022-09-16T03:42:42;1.40;;;0.90;;
46777;SDS011;32536;47.128;8.746;2022-09-16T03:45:12;1.38;;;0.80;;
46777;SDS011;32536;47.128;8.746;2022-09-16T03:47:45;1.25;;;0.88;;
46777;SDS011;32536;47.128;8.746;2022-09-16T03:50:14;1.23;;;0.70;;
46777;SDS011;32536;47.128;8.746;2022-09-16T03:52:42;1.13;;;0.82;;
46777;SDS011;32536;47.128;8.746;2022-09-16T03:55:09;1.67;;;1.02;;
46777;SDS011;32536;47.128;8.746;2022-09-16T03:57:36;1.98;;;1.25;;
46777;SDS011;32536;47.128;8.746;2022-09-16T04:00:04;2.10;;;1.40;;
46777;SDS011;32536;47.128;8.746;2022-09-16T04:02:33;1.35;;;0.88;;
46777;SDS011;32536;47.128;8.746;2022-09-16T04:05:00;3.08;;;1.50;;
46777;SDS011;32536;47.128;8.746;2022-09-16T04:07:27;2.28;;;0.90;;
46777;SDS011;32536;47.128;8.746;2022-09-16T04:09:53;1.55;;;0.85;;
46777;SDS011;32536;47.128;8.746;2022-09-16T04:12:20;1.23;;;0.85;;
46777;SDS011;32536;47.128;8.746;2022-09-16T04:14:47;1.63;;;1.05;;
46777;SDS011;32536;47.128;8.746;2022-09-16T04:17:15;1.83;;;0.93;;
46777;SDS011;32536;47.128;8.746;2022-09-16T04:19:42;1.60;;;1.13;;
46777;SDS011;32536;47.128;8.746;2022-09-16T04:22:08;1.65;;;0.88;;
46777;SDS011;32536;47.128;8.746;2022-09-16T04:24:35;1.48;;;0.80;;
46777;SDS011;32536;47.128;8.746;2022-09-16T04:27:02;1.30;;;0.90;;
46777;SDS011;32536;47.128;8.746;2022-09-16T04:29:29;1.73;;;0.98;;
46777;SDS011;32536;47.128;8.746;2022-09-16T04:31:57;2.13;;;1.23;;
46777;SDS011;32536;47.128;8.746;2022-09-16T04:34:23;1.35;;;0.93;;
46777;SDS011;32536;47.128;8.746;2022-09-16T04:36:51;1.40;;;0.93;;
46777;SDS011;32536;47.128;8.746;2022-09-16T04:39:18;1.33;;;0.88;;
46777;SDS011;32536;47.128;8.746;2022-09-16T04:41:44;1.65;;;1.35;;
46777;SDS011;32536;47.128;8.746;2022-09-16T04:44:11;1.55;;;0.85;;
46777;SDS011;32536;47.128;8.746;2022-09-16T04:46:39;1.30;;;0.98;;
46777;SDS011;32536;47.128;8.746;2022-09-16T04:49:06;1.38;;;0.85;;
46777;SDS011;32536;47.128;8.746;2022-09-16T04:51:33;1.92;;;0.93;;
46777;SDS011;32536;47.128;8.746;2022-09-16T04:54:00;1.80;;;1.23;;
46777;SDS011;32536;47.128;8.746;2022-09-16T04:56:28;1.50;;;1.20;;
46777;SDS011;32536;47.128;8.746;2022-09-16T04:59:01;1.38;;;0.80;;
46777;SDS011;32536;47.128;8.746;2022-09-16T05:01:31;1.77;;;1.00;;
46777;SDS011;32536;47.128;8.746;2022-09-16T05:06:31;1.02;;;0.63;;
46777;SDS011;32536;47.128;8.746;2022-09-16T05:09:01;1.90;;;1.38;;
46777;SDS011;32536;47.128;8.746;2022-09-16T05:11:30;2.08;;;1.33;;
46777;SDS011;32536;47.128;8.746;2022-09-16T05:16:28;0.98;;;0.57;;
46777;SDS011;32536;47.128;8.746;2022-09-16T05:18:56;1.17;;;0.65;;
46777;SDS011;32536;47.128;8.746;2022-09-16T05:21:25;1.40;;;0.95;;
46777;SDS011;32536;47.128;8.746;2022-09-16T05:23:53;1.70;;;0.93;;
46777;SDS011;32536;47.128;8.746;2022-09-16T05:26:26;1.27;;;0.77;;
46777;SDS011;32536;47.128;8.746;2022-09-16T05:28:58;1.75;;;1.10;;
46777;SDS011;32536;47.128;8.746;2022-09-16T05:33:57;1.60;;;0.82;;
46777;SDS011;32536;47.128;8.746;2022-09-16T05:36:31;1.25;;;0.70;;
46777;SDS011;32536;47.128;8.746;2022-09-16T05:39:00;1.60;;;0.93;;
46777;SDS011;32536;47.128;8.746;2022-09-16T05:41:27;0.93;;;0.55;;
46777;SDS011;32536;47.128;8.746;2022-09-16T05:43:56;1.85;;;1.48;;
46777;SDS011;32536;47.128;8.746;2022-09-16T05:46:26;2.10;;;1.33;;
46777;SDS011;32536;47.128;8.746;2022-09-16T05:48:54;2.33;;;1.13;;
46777;SDS011;32536;47.128;8.746;2022-09-16T05:51:22;2.42;;;0.95;;
46777;SDS011;32536;47.128;8.746;2022-09-16T05:53:51;2.78;;;1.17;;
46777;SDS011;32536;47.128;8.746;2022-09-16T05:56:23;2.17;;;1.33;;
46777;SDS011;32536;47.128;8.746;2022-09-16T05:58:55;2.38;;;0.85;;
46777;SDS011;32536;47.128;8.746;2022-09-16T06:01:25;1.80;;;1.08;;
46777;SDS011;32536;47.128;8.746;2022-09-16T06:06:26;2.88;;;1.27;;
46777;SDS011;32536;47.128;8.746;2022-09-16T06:08:58;3.50;;;1.92;;
46777;SDS011;32536;47.128;8.746;2022-09-16T06:11:29;2.10;;;0.93;;
46777;SDS011;32536;47.128;8.746;2022-09-16T06:13:59;1.75;;;0.93;;
46777;SDS011;32536;47.128;8.746;2022-09-16T06:16:30;2.97;;;1.55;;
46777;SDS011;32536;47.128;8.746;2022-09-16T06:18:58;2.65;;;1.30;;
46777;SDS011;32536;47.128;8.746;2022-09-16T06:21:27;3.22;;;1.13;;
46777;SDS011;32536;47.128;8.746;2022-09-16T06:23:55;2.65;;;1.48;;
46777;SDS011;32536;47.128;8.746;2022-09-16T06:26:22;2.95;;;1.33;;
46777;SDS011;32536;47.128;8.746;2022-09-16T06:28:51;2.33;;;1.50;;
46777;SDS011;32536;47.128;8.746;2022-09-16T06:31:19;3.72;;;1.10;;
46777;SDS011;32536;47.128;8.746;2022-09-16T06:33:52;1.83;;;1.20;;
46777;SDS011;32536;47.128;8.746;2022-09-16T06:36:21;3.10;;;1.55;;
46777;SDS011;32536;47.128;8.746;2022-09-16T06:38:53;2.58;;;1.33;;
46777;SDS011;32536;47.128;8.746;2022-09-16T06:41:20;3.28;;;1.73;;
46777;SDS011;32536;47.128;8.746;2022-09-16T06:43:48;4.70;;;2.38;;
46777;SDS011;32536;47.128;8.746;2022-09-16T06:46:17;3.40;;;1.90;;
46777;SDS011;32536;47.128;8.746;2022-09-16T06:48:48;2.80;;;1.38;;
46777;SDS011;32536;47.128;8.746;2022-09-16T06:51:19;3.65;;;1.90;;
46777;SDS011;32536;47.128;8.746;2022-09-16T06:53:49;2.90;;;1.45;;
46777;SDS011;32536;47.128;8.746;2022-09-16T06:56:18;2.85;;;1.38;;
46777;SDS011;32536;47.128;8.746;2022-09-16T06:58:48;3.40;;;1.52;;
46777;SDS011;32536;47.128;8.746;2022-09-16T07:01:22;2.70;;;1.15;;
46777;SDS011;32536;47.128;8.746;2022-09-16T07:03:52;3.72;;;2.10;;
46777;SDS011;32536;47.128;8.746;2022-09-16T07:06:28;3.83;;;1.95;;
46777;SDS011;32536;47.128;8.746;2022-09-16T07:08:55;3.60;;;2.58;;
46777;SDS011;32536;47.128;8.746;2022-09-16T07:11:22;4.28;;;1.83;;
46777;SDS011;32536;47.128;8.746;2022-09-16T07:13:49;3.72;;;1.92;;
46777;SDS011;32536;47.128;8.746;2022-09-16T07:16:17;4.80;;;1.70;;
46777;SDS011;32536;47.128;8.746;2022-09-16T07:18:51;5.00;;;2.78;;
46777;SDS011;32536;47.128;8.746;2022-09-16T07:21:20;4.97;;;2.47;;
46777;SDS011;32536;47.128;8.746;2022-09-16T07:23:50;3.40;;;1.75;;
46777;SDS011;32536;47.128;8.746;2022-09-16T07:26:23;4.00;;;2.05;;
46777;SDS011;32536;47.128;8.746;2022-09-16T07:28:53;3.10;;;1.45;;
46777;SDS011;32536;47.128;8.746;2022-09-16T07:31:24;3.63;;;1.85;;
46777;SDS011;32536;47.128;8.746;2022-09-16T07:33:54;3.30;;;1.48;;
46777;SDS011;32536;47.128;8.746;2022-09-16T07:36:24;3.15;;;1.73;;
46777;SDS011;32536;47.128;8.746;2022-09-16T07:38:54;1.90;;;1.02;;
46777;SDS011;32536;47.128;8.746;2022-09-16T07:41:24;2.60;;;1.33;;
46777;SDS011;32536;47.128;8.746;2022-09-16T07:43:56;3.00;;;1.52;;
46777;SDS011;32536;47.128;8.746;2022-09-16T07:46:26;2.30;;;1.05;;
46777;SDS011;32536;47.128;8.746;2022-09-16T07:48:57;3.58;;;1.65;;
46777;SDS011;32536;47.128;8.746;2022-09-16T07:51:26;2.75;;;1.55;;
46777;SDS011;32536;47.128;8.746;2022-09-16T07:53:55;2.35;;;1.38;;
46777;SDS011;32536;47.128;8.746;2022-09-16T07:56:26;3.17;;;1.88;;
46777;SDS011;32536;47.128;8.746;2022-09-16T07:58:55;3.97;;;2.03;;
46777;SDS011;32536;47.128;8.746;2022-09-16T08:01:23;3.38;;;1.80;;
46777;SDS011;32536;47.128;8.746;2022-09-16T08:03:50;5.03;;;2.13;;
46777;SDS011;32536;47.128;8.746;2022-09-16T08:06:35;3.33;;;1.80;;
46777;SDS011;32536;47.128;8.746;2022-09-16T08:09:04;3.88;;;1.92;;
46777;SDS011;32536;47.128;8.746;2022-09-16T08:11:31;3.22;;;1.77;;
46777;SDS011;32536;47.128;8.746;2022-09-16T08:13:58;3.70;;;1.92;;
46777;SDS011;32536;47.128;8.746;2022-09-16T08:16:25;3.63;;;1.60;;
46777;SDS011;32536;47.128;8.746;2022-09-16T08:18:53;3.88;;;1.85;;
46777;SDS011;32536;47.128;8.746;2022-09-16T08:21:24;3.92;;;1.70;;
46777;SDS011;32536;47.128;8.746;2022-09-16T08:23:54;2.60;;;1.35;;
46777;SDS011;32536;47.128;8.746;2022-09-16T08:26:21;3.17;;;1.45;;
46777;SDS011;32536;47.128;8.746;2022-09-16T08:28:49;2.20;;;1.17;;
46777;SDS011;32536;47.128;8.746;2022-09-16T08:31:16;2.28;;;1.33;;
46777;SDS011;32536;47.128;8.746;2022-09-16T08:33:44;2.88;;;1.67;;
46777;SDS011;32536;47.128;8.746;2022-09-16T08:36:15;1.88;;;0.98;;
46777;SDS011;32536;47.128;8.746;2022-09-16T08:38:45;2.80;;;1.23;;
46777;SDS011;32536;47.128;8.746;2022-09-16T08:50:29;4.07;;;2.00;;
46777;SDS011;32536;47.128;8.746;2022-09-16T08:53:02;3.63;;;1.80;;
46777;SDS011;32536;47.128;8.746;2022-09-16T08:55:46;4.40;;;2.05;;
46777;SDS011;32536;47.128;8.746;2022-09-16T08:58:19;4.53;;;1.67;;
46777;SDS011;32536;47.128;8.746;2022-09-16T09:00:52;4.55;;;1.80;;
46777;SDS011;32536;47.128;8.746;2022-09-16T09:24:03;4.78;;;2.35;;
46777;SDS011;32536;47.128;8.746;2022-09-16T09:27:13;5.18;;;2.50;;
46777;SDS011;32536;47.128;8.746;2022-09-16T09:36:02;5.18;;;2.45;;
46777;SDS011;32536;47.128;8.746;2022-09-16T09:39:01;4.45;;;2.47;;
46777;SDS011;32536;47.128;8.746;2022-09-16T09:41:33;5.38;;;2.85;;
46777;SDS011;32536;47.128;8.746;2022-09-16T09:46:56;6.07;;;2.35;;
46777;SDS011;32536;47.128;8.746;2022-09-16T09:49:32;4.72;;;2.65;;
46777;SDS011;32536;47.128;8.746;2022-09-16T09:54:47;5.22;;;2.83;;
46777;SDS011;32536;47.128;8.746;2022-09-16T10:02:42;4.78;;;2.58;;
46777;SDS011;32536;47.128;8.746;2022-09-16T10:05:21;4.35;;;1.98;;
46777;SDS011;32536;47.128;8.746;2022-09-16T10:07:51;3.47;;;1.92;;
46777;SDS011;32536;47.128;8.746;2022-09-16T10:10:22;4.43;;;2.53;;
46777;SDS011;32536;47.128;8.746;2022-09-16T10:12:51;4.70;;;2.55;;
46777;SDS011;32536;47.128;8.746;2022-09-16T10:17:53;4.68;;;2.10;;
46777;SDS011;32536;47.128;8.746;2022-09-16T10:20:29;5.30;;;2.05;;
46777;SDS011;32536;47.128;8.746;2022-09-16T10:23:05;5.82;;;2.40;;
46777;SDS011;32536;47.128;8.746;2022-09-16T10:25:39;5.22;;;2.30;;
46777;SDS011;32536;47.128;8.746;2022-09-16T10:28:23;4.85;;;2.28;;
46777;SDS011;32536;47.128;8.746;2022-09-16T10:30:52;4.55;;;2.38;;
46777;SDS011;32536;47.128;8.746;2022-09-16T10:33:29;6.20;;;3.08;;
46777;SDS011;32536;47.128;8.746;2022-09-16T10:36:02;5.47;;;2.75;;
46777;SDS011;32536;47.128;8.746;2022-09-16T10:38:38;4.60;;;2.70;;
46777;SDS011;32536;47.128;8.746;2022-09-16T10:43:46;5.70;;;2.58;;
46777;SDS011;32536;47.128;8.746;2022-09-16T10:46:19;4.78;;;2.53;;
46777;SDS011;32536;47.128;8.746;2022-09-16T10:48:46;5.70;;;3.00;;
46777;SDS011;32536;47.128;8.746;2022-09-16T10:51:29;5.05;;;2.45;;
46777;SDS011;32536;47.128;8.746;2022-09-16T10:54:00;5.43;;;2.85;;
46777;SDS011;32536;47.128;8.746;2022-09-16T10:56:31;4.65;;;2.33;;
46777;SDS011;32536;47.128;8.746;2022-09-16T10:59:10;5.25;;;2.45;;
46777;SDS011;32536;47.128;8.746;2022-09-16T11:16:22;4.03;;;2.33;;
46777;SDS011;32536;47.128;8.746;2022-09-16T11:22:24;3.67;;;1.60;;
46777;SDS011;32536;47.128;8.746;2022-09-16T11:57:20;3.28;;;1.65;;
46777;SDS011;32536;47.128;8.746;2022-09-16T12:14:33;3.75;;;1.67;;
46777;SDS011;32536;47.128;8.746;2022-09-16T12:19:41;6.30;;;2.75;;
46777;SDS011;32536;47.128;8.746;2022-09-16T12:22:19;4.78;;;2.42;;
46777;SDS011;32536;47.128;8.746;2022-09-16T12:24:52;3.80;;;2.00;;
46777;SDS011;32536;47.128;8.746;2022-09-16T12:27:42;3.67;;;1.92;;
46777;SDS011;32536;47.128;8.746;2022-09-16T12:30:21;4.13;;;1.60;;
46777;SDS011;32536;47.128;8.746;2022-09-16T12:38:33;4.22;;;2.00;;
46777;SDS011;32536;47.128;8.746;2022-09-16T12:56:36;5.53;;;3.03;;
46777;SDS011;32536;47.128;8.746;2022-09-16T13:01:49;4.38;;;2.25;;
46777;SDS011;32536;47.128;8.746;2022-09-16T13:04:44;3.22;;;1.73;;
46777;SDS011;32536;47.128;8.746;2022-09-16T13:10:02;3.38;;;1.63;;
46777;SDS011;32536;47.128;8.746;2022-09-16T13:12:33;3.13;;;1.52;;
46777;SDS011;32536;47.128;8.746;2022-09-16T13:15:03;2.40;;;1.20;;
46777;SDS011;32536;47.128;8.746;2022-09-16T13:17:35;4.28;;;1.42;;
46777;SDS011;32536;47.128;8.746;2022-09-16T13:23:07;2.85;;;1.48;;
46777;SDS011;32536;47.128;8.746;2022-09-16T13:25:50;5.40;;;2.63;;
46777;SDS011;32536;47.128;8.746;2022-09-16T13:28:39;4.75;;;2.38;;
46777;SDS011;32536;47.128;8.746;2022-09-16T13:33:38;4.10;;;1.98;;
46777;SDS011;32536;47.128;8.746;2022-09-16T13:36:31;2.75;;;1.33;;
46777;SDS011;32536;47.128;8.746;2022-09-16T13:39:00;2.70;;;1.20;;
46777;SDS011;32536;47.128;8.746;2022-09-16T13:41:34;2.65;;;1.38;;
46777;SDS011;32536;47.128;8.746;2022-09-16T13:47:18;3.88;;;2.03;;
46777;SDS011;32536;47.128;8.746;2022-09-16T13:52:35;3.85;;;1.73;;
46777;SDS011;32536;47.128;8.746;2022-09-16T13:55:03;2.92;;;1.40;;
46777;SDS011;32536;47.128;8.746;2022-09-16T14:00:25;4.78;;;2.60;;
46777;SDS011;32536;47.128;8.746;2022-09-16T14:09:41;4.40;;;2.45;;
46777;SDS011;32536;47.128;8.746;2022-09-16T14:12:31;5.38;;;3.50;;
46777;SDS011;32536;47.128;8.746;2022-09-16T14:15:01;4.45;;;2.45;;
46777;SDS011;32536;47.128;8.746;2022-09-16T14:17:31;4.57;;;2.40;;
46777;SDS011;32536;47.128;8.746;2022-09-16T14:20:22;3.63;;;1.58;;
46777;SDS011;32536;47.128;8.746;2022-09-16T14:23:03;4.75;;;2.70;;
46777;SDS011;32536;47.128;8.746;2022-09-16T14:25:45;4.30;;;2.40;;
46777;SDS011;32536;47.128;8.746;2022-09-16T14:28:25;5.38;;;3.10;;
46777;SDS011;32536;47.128;8.746;2022-09-16T14:30:54;5.75;;;3.30;;
46777;SDS011;32536;47.128;8.746;2022-09-16T14:33:34;3.58;;;1.83;;
46777;SDS011;32536;47.128;8.746;2022-09-16T14:36:17;3.05;;;1.70;;
46777;SDS011;32536;47.128;8.746;2022-09-16T14:41:55;4.22;;;2.22;;
46777;SDS011;32536;47.128;8.746;2022-09-16T14:49:45;3.08;;;1.52;;
46777;SDS011;32536;47.128;8.746;2022-09-16T14:52:19;2.88;;;1.38;;
46777;SDS011;32536;47.128;8.746;2022-09-16T14:54:50;3.42;;;1.73;;
46777;SDS011;32536;47.128;8.746;2022-09-16T14:57:21;5.10;;;2.63;;
46777;SDS011;32536;47.128;8.746;2022-09-16T14:59:52;4.82;;;2.42;;
46777;SDS011;32536;47.128;8.746;2022-09-16T15:04:54;6.68;;;3.25;;
46777;SDS011;32536;47.128;8.746;2022-09-16T15:07:39;4.75;;;2.55;;
46777;SDS011;32536;47.128;8.746;2022-09-16T15:10:43;5.80;;;2.55;;
46777;SDS011;32536;47.128;8.746;2022-09-16T15:13:04;5.13;;;3.08;;
46777;SDS011;32536;47.128;8.746;2022-09-16T15:15:44;5.03;;;2.78;;
46777;SDS011;32536;47.128;8.746;2022-09-16T15:18:27;3.67;;;2.05;;
46777;SDS011;32536;47.128;8.746;2022-09-16T15:21:03;4.18;;;2.10;;
46777;SDS011;32536;47.128;8.746;2022-09-16T15:23:47;4.03;;;2.13;;
46777;SDS011;32536;47.128;8.746;2022-09-16T15:29:06;4.90;;;2.45;;
46777;SDS011;32536;47.128;8.746;2022-09-16T15:31:45;4.45;;;2.00;;
46777;SDS011;32536;47.128;8.746;2022-09-16T15:36:52;4.43;;;2.53;;
46777;SDS011;32536;47.128;8.746;2022-09-16T15:39:22;4.35;;;2.38;;
46777;SDS011;32536;47.128;8.746;2022-09-16T15:42:15;4.68;;;2.63;;
46777;SDS011;32536;47.128;8.746;2022-09-16T15:44:58;3.67;;;1.75;;
46777;SDS011;32536;47.128;8.746;2022-09-16T15:50:00;3.83;;;1.92;;
46777;SDS011;32536;47.128;8.746;2022-09-16T15:55:33;5.22;;;2.50;;
46777;SDS011;32536;47.128;8.746;2022-09-16T15:58:49;4.15;;;2.42;;
46777;SDS011;32536;47.128;8.746;2022-09-16T16:04:05;3.88;;;1.63;;
46777;SDS011;32536;47.128;8.746;2022-09-16T16:09:31;4.15;;;2.38;;
46777;SDS011;32536;47.128;8.746;2022-09-16T16:14:33;2.33;;;1.40;;
46777;SDS011;32536;47.128;8.746;2022-09-16T16:17:08;2.40;;;1.02;;
46777;SDS011;32536;47.128;8.746;2022-09-16T16:19:48;4.03;;;1.95;;
46777;SDS011;32536;47.128;8.746;2022-09-16T16:22:15;2.95;;;1.42;;
46777;SDS011;32536;47.128;8.746;2022-09-16T16:24:42;4.22;;;2.08;;
46777;SDS011;32536;47.128;8.746;2022-09-16T16:27:10;2.58;;;1.35;;
46777;SDS011;32536;47.128;8.746;2022-09-16T16:29:36;2.50;;;1.40;;
46777;SDS011;32536;47.128;8.746;2022-09-16T16:34:38;2.00;;;1.23;;
46777;SDS011;32536;47.128;8.746;2022-09-16T16:37:08;2.10;;;1.15;;
46777;SDS011;32536;47.128;8.746;2022-09-16T16:39:37;3.10;;;1.40;;
46777;SDS011;32536;47.128;8.746;2022-09-16T16:42:04;2.75;;;1.65;;
46777;SDS011;32536;47.128;8.746;2022-09-16T16:44:31;2.03;;;1.02;;
46777;SDS011;32536;47.128;8.746;2022-09-16T16:46:59;2.22;;;1.38;;
46777;SDS011;32536;47.128;8.746;2022-09-16T16:49:26;2.45;;;1.55;;
46777;SDS011;32536;47.128;8.746;2022-09-16T16:51:53;2.95;;;1.30;;
46777;SDS011;32536;47.128;8.746;2022-09-16T16:54:22;3.30;;;1.95;;
46777;SDS011;32536;47.128;8.746;2022-09-16T16:56:51;2.55;;;1.48;;
46777;SDS011;32536;47.128;8.746;2022-09-16T16:59:18;2.67;;;1.52;;
46777;SDS011;32536;47.128;8.746;2022-09-16T17:01:47;2.17;;;1.08;;
46777;SDS011;32536;47.128;8.746;2022-09-16T17:04:17;2.47;;;1.25;;
46777;SDS011;32536;47.128;8.746;2022-09-16T17:09:32;1.50;;;0.95;;
46777;SDS011;32536;47.128;8.746;2022-09-16T17:12:00;1.83;;;1.10;;
46777;SDS011;32536;47.128;8.746;2022-09-16T17:14:29;2.05;;;1.17;;
46777;SDS011;32536;47.128;8.746;2022-09-16T17:16:58;2.05;;;1.23;;
46777;SDS011;32536;47.128;8.746;2022-09-16T17:19:27;1.65;;;1.05;;
46777;SDS011;32536;47.128;8.746;2022-09-16T17:21:54;1.92;;;1.20;;
46777;SDS011;32536;47.128;8.746;2022-09-16T17:24:22;1.38;;;0.80;;
46777;SDS011;32536;47.128;8.746;2022-09-16T17:26:49;2.17;;;1.17;;
46777;SDS011;32536;47.128;8.746;2022-09-16T17:29:15;3.08;;;1.40;;
46777;SDS011;32536;47.128;8.746;2022-09-16T17:31:43;1.55;;;0.98;;
46777;SDS011;32536;47.128;8.746;2022-09-16T17:34:11;2.17;;;1.13;;
46777;SDS011;32536;47.128;8.746;2022-09-16T17:36:41;3.95;;;1.58;;
46777;SDS011;32536;47.128;8.746;2022-09-16T17:39:11;2.75;;;1.38;;
46777;SDS011;32536;47.128;8.746;2022-09-16T17:41:44;4.00;;;2.22;;
46777;SDS011;32536;47.128;8.746;2022-09-16T17:44:13;4.18;;;2.20;;
46777;SDS011;32536;47.128;8.746;2022-09-16T17:46:41;5.38;;;2.95;;
46777;SDS011;32536;47.128;8.746;2022-09-16T17:49:12;3.95;;;2.10;;
46777;SDS011;32536;47.128;8.746;2022-09-16T17:51:47;2.63;;;1.75;;
46777;SDS011;32536;47.128;8.746;2022-09-16T17:54:15;4.00;;;2.33;;
46777;SDS011;32536;47.128;8.746;2022-09-16T17:56:42;3.00;;;1.73;;
46777;SDS011;32536;47.128;8.746;2022-09-16T17:59:10;3.40;;;2.03;;
46777;SDS011;32536;47.128;8.746;2022-09-16T18:01:41;4.07;;;2.17;;
46777;SDS011;32536;47.128;8.746;2022-09-16T18:04:08;3.35;;;2.35;;
46777;SDS011;32536;47.128;8.746;2022-09-16T18:09:35;5.55;;;2.72;;
46777;SDS011;32536;47.128;8.746;2022-09-16T18:12:02;3.45;;;1.73;;
46777;SDS011;32536;47.128;8.746;2022-09-16T18:14:28;3.53;;;1.50;;
46777;SDS011;32536;47.128;8.746;2022-09-16T18:16:55;2.38;;;1.23;;
46777;SDS011;32536;47.128;8.746;2022-09-16T18:19:22;2.72;;;1.20;;
46777;SDS011;32536;47.128;8.746;2022-09-16T18:21:48;2.60;;;1.45;;
46777;SDS011;32536;47.128;8.746;2022-09-16T18:24:15;2.70;;;1.15;;
46777;SDS011;32536;47.128;8.746;2022-09-16T18:26:42;2.00;;;1.10;;
46777;SDS011;32536;47.128;8.746;2022-09-16T18:29:09;3.17;;;1.08;;
46777;SDS011;32536;47.128;8.746;2022-09-16T18:31:38;3.63;;;1.52;;
46777;SDS011;32536;47.128;8.746;2022-09-16T18:34:10;2.35;;;1.45;;
46777;SDS011;32536;47.128;8.746;2022-09-16T18:36:39;2.40;;;1.55;;
46777;SDS011;32536;47.128;8.746;2022-09-16T18:39:08;2.78;;;1.25;;
46777;SDS011;32536;47.128;8.746;2022-09-16T18:41:39;17.83;;;14.70;;
46777;SDS011;32536;47.128;8.746;2022-09-16T18:44:12;15.82;;;10.43;;
46777;SDS011;32536;47.128;8.746;2022-09-16T18:46:44;7.60;;;4.65;;
46777;SDS011;32536;47.128;8.746;2022-09-16T18:49:12;4.55;;;2.45;;
46777;SDS011;32536;47.128;8.746;2022-09-16T18:51:44;4.75;;;2.10;;
46777;SDS011;32536;47.128;8.746;2022-09-16T18:54:17;3.88;;;2.03;;
46777;SDS011;32536;47.128;8.746;2022-09-16T18:56:49;3.70;;;1.67;;
46777;SDS011;32536;47.128;8.746;2022-09-16T18:59:17;3.95;;;1.38;;
46777;SDS011;32536;47.128;8.746;2022-09-16T19:01:46;3.63;;;1.90;;
46777;SDS011;32536;47.128;8.746;2022-09-16T19:04:14;3.95;;;1.75;;
46777;SDS011;32536;47.128;8.746;2022-09-16T19:09:39;3.47;;;1.73;;
46777;SDS011;32536;47.128;8.746;2022-09-16T19:12:10;5.90;;;2.80;;
46777;SDS011;32536;47.128;8.746;2022-09-16T19:14:38;3.35;;;1.75;;
46777;SDS011;32536;47.128;8.746;2022-09-16T19:17:05;2.70;;;1.45;;
46777;SDS011;32536;47.128;8.746;2022-09-16T19:19:33;3.00;;;1.48;;
46777;SDS011;32536;47.128;8.746;2022-09-16T19:22:00;1.90;;;1.30;;
46777;SDS011;32536;47.128;8.746;2022-09-16T19:24:30;4.20;;;1.80;;
46777;SDS011;32536;47.128;8.746;2022-09-16T19:26:57;3.47;;;1.75;;
46777;SDS011;32536;47.128;8.746;2022-09-16T19:29:24;2.85;;;1.52;;
46777;SDS011;32536;47.128;8.746;2022-09-16T19:31:51;2.53;;;1.35;;
46777;SDS011;32536;47.128;8.746;2022-09-16T19:34:19;2.97;;;1.30;;
46777;SDS011;32536;47.128;8.746;2022-09-16T19:36:46;3.20;;;1.85;;
46777;SDS011;32536;47.128;8.746;2022-09-16T19:39:14;2.50;;;1.65;;
46777;SDS011;32536;47.128;8.746;2022-09-16T19:41:41;2.65;;;1.38;;
46777;SDS011;32536;47.128;8.746;2022-09-16T19:44:15;2.60;;;1.55;;
46777;SDS011;32536;47.128;8.746;2022-09-16T19:46:43;2.30;;;1.65;;
46777;SDS011;32536;47.128;8.746;2022-09-16T19:49:14;2.17;;;1.33;;
46777;SDS011;32536;47.128;8.746;2022-09-16T19:51:44;2.65;;;1.23;;
46777;SDS011;32536;47.128;8.746;2022-09-16T19:54:12;2.22;;;1.40;;
46777;SDS011;32536;47.128;8.746;2022-09-16T19:56:40;2.30;;;1.60;;
46777;SDS011;32536;47.128;8.746;2022-09-16T19:59:07;1.90;;;1.10;;